Time;durP1;ratioP1;P1;durP2;ratioP2;P2;SDS_P1;SDS_P2;PMS_P1;PMS_P2;Temp;Humidity;BMP_temperature;BMP_pressure;BME280_temperature;BME280_humidity;BME280_pressure;Samples;Min_cycle;Max_cycle;Signal;HPM_P1;HPM_P2
2022/07/07 00:01:07;;;;;;;7.53;3.28;;;;;;;18.60;64.57;101844.69;5049973;28;20068;-77
2022/07/07 00:03:33;;;;;;;6.30;3.00;;;;;;;18.59;64.73;101840.47;5033867;28;20116;-75
2022/07/07 00:05:59;;;;;;;7.50;3.55;;;;;;;18.57;64.67;101841.63;5069146;28;20039;-76
2022/07/07 00:08:24;;;;;;;5.18;2.92;;;;;;;18.56;64.92;101832.13;5049463;28;20028;-75
2022/07/07 00:10:50;;;;;;;5.43;2.60;;;;;;;18.53;65.02;101829.84;5050921;28;20048;-75
2022/07/07 00:13:15;;;;;;;4.07;2.53;;;;;;;18.53;64.97;101830.66;5027836;28;20115;-74
2022/07/07 00:15:45;;;;;;;9.45;3.25;;;;;;;18.57;64.93;101818.81;5066387;28;20029;-75
2022/07/07 00:18:11;;;;;;;5.43;3.10;;;;;;;18.46;65.08;101817.47;5075663;28;20060;-75
2022/07/07 00:20:36;;;;;;;7.05;2.78;;;;;;;18.47;65.01;101826.97;5069773;28;20031;-76
2022/07/07 00:23:02;;;;;;;5.22;2.60;;;;;;;18.49;65.37;101826.78;5046920;28;20032;-76
2022/07/07 00:25:27;;;;;;;8.25;2.75;;;;;;;18.48;65.09;101825.16;5065943;28;20489;-76
2022/07/07 00:27:53;;;;;;;6.07;3.03;;;;;;;18.49;64.88;101818.91;5062484;28;20123;-76
2022/07/07 00:30:18;;;;;;;4.53;2.65;;;;;;;18.44;64.93;101819.47;5053053;28;20032;-74
2022/07/07 00:32:44;;;;;;;3.65;2.20;;;;;;;18.38;65.11;101808.88;5061862;28;20069;-76
2022/07/07 00:35:09;;;;;;;3.97;2.30;;;;;;;18.34;65.16;101803.16;5044765;28;20098;-76
2022/07/07 00:37:35;;;;;;;5.43;2.20;;;;;;;18.34;64.98;101802.38;5062124;28;20028;-76
2022/07/07 00:40:00;;;;;;;5.45;2.83;;;;;;;18.40;64.88;101799.84;5044355;28;20481;-76
2022/07/07 00:42:26;;;;;;;5.63;2.58;;;;;;;18.38;64.68;101782.63;5044869;28;20029;-77
2022/07/07 00:44:51;;;;;;;8.07;3.13;;;;;;;18.35;64.99;101775.13;5047590;28;20481;-75
2022/07/07 00:47:19;;;;;;;5.60;2.60;;;;;;;18.31;64.99;101776.47;5042954;28;20036;-76
2022/07/07 00:49:45;;;;;;;6.32;2.47;;;;;;;18.27;65.42;101771.59;5061607;28;20025;-75
2022/07/07 00:52:11;;;;;;;6.70;2.88;;;;;;;18.32;65.43;101771.03;5063917;28;20031;-75
2022/07/07 00:54:37;;;;;;;4.57;2.33;;;;;;;18.35;65.23;101762.00;5049515;28;20033;-76
2022/07/07 00:57:05;;;;;;;4.88;2.08;;;;;;;18.27;65.78;101762.88;5027815;28;20059;-75
2022/07/07 00:59:32;;;;;;;5.97;2.45;;;;;;;18.24;65.98;101758.84;5065557;28;20036;-76
2022/07/07 01:01:58;;;;;;;3.55;2.10;;;;;;;18.27;66.29;101758.47;5064769;28;20439;-75
2022/07/07 01:04:23;;;;;;;4.90;2.40;;;;;;;18.22;66.26;101757.41;5048281;28;20033;-74
2022/07/07 01:06:49;;;;;;;4.72;2.85;;;;;;;18.18;66.83;101754.31;5064799;28;20523;-74
2022/07/07 01:09:15;;;;;;;4.82;2.83;;;;;;;18.14;67.53;101757.47;5065629;28;20032;-74
2022/07/07 01:11:50;;;;;;;6.10;2.42;;;;;;;18.17;68.76;101751.88;5065186;28;20036;-75
2022/07/07 01:14:15;;;;;;;5.00;2.00;;;;;;;18.09;69.91;101753.59;5044516;28;20032;-76
2022/07/07 01:16:41;;;;;;;5.72;2.40;;;;;;;18.14;70.70;101747.81;5043856;28;20056;-75
2022/07/07 01:19:07;;;;;;;7.10;2.42;;;;;;;18.12;71.24;101736.69;5062610;28;20028;-74
2022/07/07 01:21:56;;;;;;;4.65;2.40;;;;;;;18.02;71.14;101738.78;5065217;28;20032;-76
2022/07/07 01:24:24;;;;;;;7.45;3.38;;;;;;;18.03;71.39;101737.78;5063397;28;20591;-74
2022/07/07 01:26:50;;;;;;;5.95;2.38;;;;;;;18.01;71.28;101737.16;5028686;28;20029;-75
2022/07/07 01:29:15;;;;;;;3.38;1.80;;;;;;;17.98;71.39;101738.31;5044888;28;20839;-74
2022/07/07 01:31:41;;;;;;;3.65;1.70;;;;;;;17.96;71.49;101729.00;5043507;28;20500;-75
2022/07/07 01:34:06;;;;;;;4.57;1.85;;;;;;;17.97;71.68;101728.84;5045818;28;20032;-77
2022/07/07 01:36:32;;;;;;;2.42;1.73;;;;;;;17.97;71.36;101726.22;5064637;28;20028;-75
2022/07/07 01:38:57;;;;;;;3.55;1.90;;;;;;;17.97;71.65;101728.84;5028289;28;20036;-76
2022/07/07 01:41:22;;;;;;;4.38;2.00;;;;;;;18.04;71.52;101726.28;5043573;28;20504;-76
2022/07/07 01:43:48;;;;;;;3.28;1.98;;;;;;;17.93;71.77;101719.69;5044923;28;20036;-75
2022/07/07 01:46:13;;;;;;;5.72;2.00;;;;;;;17.92;71.64;101712.81;5045529;28;20036;-75
2022/07/07 01:48:39;;;;;;;6.07;2.10;;;;;;;17.97;71.58;101709.63;5043940;28;20118;-76
2022/07/07 01:51:05;;;;;;;5.18;1.90;;;;;;;17.94;71.66;101699.53;5037336;28;20436;-77
2022/07/07 01:53:30;;;;;;;3.15;1.92;;;;;;;17.94;72.04;101699.53;5035993;28;20086;-73
2022/07/07 01:56:02;;;;;;;6.50;1.92;;;;;;;17.93;72.03;101696.06;5046700;28;20424;-76
2022/07/07 01:58:27;;;;;;;4.25;2.33;;;;;;;17.90;72.07;101689.38;5044485;28;20051;-76
2022/07/07 02:00:53;;;;;;;6.32;2.70;;;;;;;17.94;72.30;101679.34;5045680;28;20028;-76
2022/07/07 02:03:18;;;;;;;4.13;2.20;;;;;;;18.09;71.98;101674.88;5061340;28;20040;-76
2022/07/07 02:05:44;;;;;;;4.07;2.20;;;;;;;17.97;71.90;101678.97;5062090;28;20033;-75
2022/07/07 02:08:09;;;;;;;6.93;1.95;;;;;;;17.87;72.37;101689.75;5044846;28;20114;-75
2022/07/07 02:13:19;;;;;;;5.00;2.20;;;;;;;17.92;72.41;101696.28;5053129;28;20021;-74
2022/07/07 02:15:44;;;;;;;3.83;1.92;;;;;;;17.92;72.79;101694.44;5046870;28;20789;-75
2022/07/07 02:18:10;;;;;;;4.50;2.10;;;;;;;17.92;72.66;101688.41;5063645;28;20504;-76
2022/07/07 02:20:35;;;;;;;6.10;2.58;;;;;;;18.00;72.88;101691.72;5067539;28;20032;-75
2022/07/07 02:23:00;;;;;;;3.47;1.95;;;;;;;17.95;72.83;101683.59;5043736;28;20037;-75
2022/07/07 02:25:26;;;;;;;4.18;2.13;;;;;;;18.00;73.00;101686.47;5049730;28;20496;-76
2022/07/07 02:27:53;;;;;;;6.30;1.90;;;;;;;18.01;72.65;101693.34;5043437;28;20040;-74
2022/07/07 02:30:18;;;;;;;5.22;2.65;;;;;;;17.92;73.08;101683.97;5050407;28;20036;-76
2022/07/07 02:32:44;;;;;;;4.40;1.92;;;;;;;17.97;72.99;101680.78;5064468;28;20040;-76
2022/07/07 02:35:09;;;;;;;5.53;1.95;;;;;;;18.02;72.79;101676.59;5038581;28;20044;-74
2022/07/07 02:37:35;;;;;;;7.05;2.10;;;;;;;17.94;73.52;101679.34;5065523;28;20036;-74
2022/07/07 02:40:01;;;;;;;3.65;1.98;;;;;;;17.95;73.27;101677.53;5047224;28;20061;-73
2022/07/07 02:42:26;;;;;;;4.05;2.20;;;;;;;17.92;73.40;101680.53;5032873;28;20025;-74
2022/07/07 02:44:52;;;;;;;4.18;2.00;;;;;;;17.90;73.67;101675.47;5059704;28;20035;-75
2022/07/07 02:47:17;;;;;;;6.45;2.22;;;;;;;17.97;73.44;101675.53;5054109;28;20094;-75
2022/07/07 02:49:42;;;;;;;4.03;2.10;;;;;;;17.91;73.95;101682.31;5036941;28;20037;-75
2022/07/07 02:52:08;;;;;;;4.43;2.13;;;;;;;17.93;73.74;101674.28;5068157;28;21058;-77
2022/07/07 02:54:33;;;;;;;4.13;1.90;;;;;;;17.88;73.95;101673.00;5071973;28;20558;-75
2022/07/07 02:56:59;;;;;;;3.50;2.10;;;;;;;17.86;74.26;101663.72;5067989;28;20051;-75
2022/07/07 02:59:24;;;;;;;4.10;1.90;;;;;;;17.90;74.22;101671.03;5051600;28;20032;-75
2022/07/07 03:01:50;;;;;;;5.57;2.00;;;;;;;18.03;73.94;101675.63;5064994;28;20028;-76
2022/07/07 03:04:15;;;;;;;5.18;2.20;;;;;;;17.94;74.16;101679.34;5046322;28;20028;-75
2022/07/07 03:06:41;;;;;;;7.40;2.22;;;;;;;18.10;74.05;101675.69;5047851;28;20036;-73
2022/07/07 03:09:06;;;;;;;4.82;2.30;;;;;;;18.06;74.15;101675.25;5049598;28;20396;-75
2022/07/07 03:11:32;;;;;;;5.00;2.22;;;;;;;18.01;74.24;101682.06;5050446;28;20048;-74
2022/07/07 03:13:57;;;;;;;6.20;2.58;;;;;;;18.07;74.17;101679.50;5046374;28;20033;-75
2022/07/07 03:16:23;;;;;;;5.78;2.60;;;;;;;18.02;74.53;101687.09;5066752;28;20044;-75
2022/07/07 03:18:48;;;;;;;3.38;2.42;;;;;;;18.10;74.59;101680.94;5049139;28;20093;-76
2022/07/07 03:21:14;;;;;;;5.55;2.00;;;;;;;18.03;74.79;101685.31;5048328;28;20035;-76
2022/07/07 03:23:39;;;;;;;6.55;2.35;;;;;;;17.96;75.29;101681.78;5066529;28;20835;-75
2022/07/07 03:26:04;;;;;;;5.72;2.42;;;;;;;17.97;75.49;101668.50;5067819;28;20451;-75
2022/07/07 03:28:30;;;;;;;10.95;2.65;;;;;;;17.96;75.52;101674.72;5057747;28;20040;-75
2022/07/07 03:30:55;;;;;;;4.53;2.35;;;;;;;17.90;76.18;101673.63;5048451;28;20036;-75
2022/07/07 03:33:21;;;;;;;3.63;2.25;;;;;;;17.95;75.71;101670.47;5035851;28;20059;-75
2022/07/07 03:35:46;;;;;;;3.30;2.50;;;;;;;18.04;76.06;101668.53;5050442;28;20496;-75
2022/07/07 03:38:12;;;;;;;4.32;2.72;;;;;;;18.04;76.51;101664.09;5066477;28;20043;-76
2022/07/07 03:40:37;;;;;;;9.32;2.90;;;;;;;18.01;77.47;101661.06;5048031;28;20487;-78
2022/07/07 03:43:03;;;;;;;6.00;2.85;;;;;;;17.95;77.79;101664.41;5030117;28;20537;-75
2022/07/07 03:45:28;;;;;;;6.72;2.67;;;;;;;17.94;77.41;101668.03;5066367;28;20047;-74
2022/07/07 03:47:53;;;;;;;5.90;2.80;;;;;;;17.88;77.88;101667.75;5067053;28;20492;-75
2022/07/07 03:50:19;;;;;;;6.22;2.50;;;;;;;17.85;77.62;101677.81;5066754;28;20439;-75
2022/07/07 03:52:44;;;;;;;5.88;2.50;;;;;;;17.95;77.82;101662.63;5049861;28;20032;-76
2022/07/07 03:55:10;;;;;;;3.95;3.00;;;;;;;17.94;77.69;101655.72;5033295;28;20035;-76
2022/07/07 03:57:38;;;;;;;5.60;2.75;;;;;;;17.88;78.05;101643.34;5047761;28;20024;-74
2022/07/07 04:00:04;;;;;;;5.88;2.70;;;;;;;17.79;78.13;101639.19;5062362;28;20071;-76
2022/07/07 04:02:33;;;;;;;5.43;2.45;;;;;;;17.82;78.22;101631.75;5047828;28;20041;-76
2022/07/07 04:04:59;;;;;;;4.13;2.50;;;;;;;17.81;78.46;101630.09;5069163;28;20033;-76
2022/07/07 04:07:24;;;;;;;8.93;2.83;;;;;;;17.88;78.48;101635.47;5066237;28;20032;-76
2022/07/07 04:09:50;;;;;;;7.90;2.53;;;;;;;17.94;78.01;101624.25;5054616;28;20052;-76
2022/07/07 04:12:15;;;;;;;3.80;2.20;;;;;;;17.87;78.27;101626.78;5048719;28;20048;-74
2022/07/07 04:14:41;;;;;;;5.70;2.85;;;;;;;17.94;78.17;101618.19;5050949;28;20056;-76
2022/07/07 04:17:06;;;;;;;5.28;2.97;;;;;;;17.83;78.40;101627.31;5049078;28;20040;-76
2022/07/07 04:19:32;;;;;;;5.70;2.67;;;;;;;17.84;78.73;101631.56;5047161;28;20033;-73
2022/07/07 04:21:57;;;;;;;7.68;2.38;;;;;;;17.94;78.33;101618.19;5046211;28;20071;-76
2022/07/07 04:24:23;;;;;;;8.82;3.03;;;;;;;17.80;78.87;101618.00;5052538;28;20039;-76
2022/07/07 04:26:48;;;;;;;5.72;2.35;;;;;;;17.89;78.93;101614.31;5047010;28;20048;-75
2022/07/07 04:29:15;;;;;;;8.25;2.78;;;;;;;17.93;78.44;101613.94;5046018;28;20043;-76
2022/07/07 04:31:44;;;;;;;7.90;2.72;;;;;;;17.84;79.16;101619.28;5051500;28;20627;-76
2022/07/07 04:34:13;;;;;;;11.43;2.90;;;;;;;17.80;79.22;101614.56;5049228;28;20103;-75
2022/07/07 04:36:39;;;;;;;5.70;2.63;;;;;;;17.88;78.84;101619.75;5073151;28;20036;-74
2022/07/07 04:39:05;;;;;;;8.07;2.75;;;;;;;17.88;79.32;101619.75;5065643;28;20174;-77
2022/07/07 04:41:30;;;;;;;6.97;2.65;;;;;;;17.79;80.18;101624.25;5045637;28;20044;-76
2022/07/07 04:43:56;;;;;;;3.63;2.38;;;;;;;17.86;81.05;101621.75;5064151;28;20037;-75
2022/07/07 04:46:21;;;;;;;7.88;2.75;;;;;;;17.81;81.64;101624.06;5048494;28;20028;-76
2022/07/07 04:48:47;;;;;;;7.00;2.70;;;;;;;17.76;82.70;101629.03;5065982;28;20587;-75
2022/07/07 04:51:12;;;;;;;4.85;2.63;;;;;;;17.77;83.67;101626.25;5048184;28;20063;-75
2022/07/07 04:53:37;;;;;;;5.55;2.92;;;;;;;17.67;84.55;101631.78;5062265;28;20059;-74
2022/07/07 04:56:04;;;;;;;5.70;2.47;;;;;;;17.61;84.35;101635.13;5062014;28;20085;-74
2022/07/07 04:58:30;;;;;;;10.85;3.75;;;;;;;17.58;85.56;101630.25;5066220;28;20032;-76
2022/07/07 05:00:55;;;;;;;4.68;2.92;;;;;;;17.54;87.67;101639.47;5044590;28;20031;-75
2022/07/07 05:03:20;;;;;;;6.93;3.75;;;;;;;17.35;88.62;101640.81;5043193;28;20546;-76
2022/07/07 05:05:46;;;;;;;6.38;3.10;;;;;;;17.27;90.08;101641.72;5044487;28;20652;-77
2022/07/07 05:08:11;;;;;;;6.28;3.65;;;;;;;17.22;91.00;101641.44;5030480;28;20035;-76
2022/07/07 05:10:37;;;;;;;4.63;2.90;;;;;;;17.16;90.87;101652.66;5069136;28;20032;-76
2022/07/07 05:13:02;;;;;;;8.45;3.50;;;;;;;17.08;91.62;101658.78;5029889;28;20040;-74
2022/07/07 05:15:28;;;;;;;6.40;2.80;;;;;;;16.95;93.11;101652.50;5064815;28;20398;-72
2022/07/07 05:17:53;;;;;;;5.63;3.15;;;;;;;16.93;93.81;101656.13;5031453;28;20028;-76
2022/07/07 05:20:19;;;;;;;5.43;2.72;;;;;;;16.86;94.26;101657.81;5067531;28;20070;-73
2022/07/07 05:22:44;;;;;;;6.22;2.83;;;;;;;16.80;94.81;101666.38;5065791;28;20616;-76
2022/07/07 05:25:10;;;;;;;9.50;2.80;;;;;;;16.83;94.31;101663.41;5029902;28;20029;-76
2022/07/07 05:27:36;;;;;;;4.40;2.70;;;;;;;16.81;94.43;101675.84;5048432;28;20739;-78
2022/07/07 05:30:02;;;;;;;5.15;2.90;;;;;;;16.72;95.06;101671.66;5045122;28;20037;-73
2022/07/07 05:32:28;;;;;;;6.82;2.92;;;;;;;16.77;95.04;101671.13;5068437;28;20115;-73
2022/07/07 05:34:54;;;;;;;7.32;2.60;;;;;;;16.72;95.69;101677.69;5068512;28;20393;-75
2022/07/07 05:37:19;;;;;;;4.18;2.38;;;;;;;16.79;96.40;101675.19;5063875;28;20489;-75
2022/07/07 05:39:45;;;;;;;3.47;2.38;;;;;;;16.75;96.96;101679.16;5047954;28;20036;-77
2022/07/07 05:42:10;;;;;;;6.75;2.47;;;;;;;16.86;96.82;101688.44;5062086;28;20393;-75
2022/07/07 05:44:36;;;;;;;4.30;2.33;;;;;;;16.79;96.02;101680.44;5064537;28;20028;-77
2022/07/07 05:47:01;;;;;;;4.05;2.78;;;;;;;16.85;95.91;101684.19;5062956;28;20083;-75
2022/07/07 05:49:27;;;;;;;3.40;3.00;;;;;;;16.91;95.45;101688.72;5046419;28;20037;-75
2022/07/07 05:51:52;;;;;;;5.00;2.53;;;;;;;16.92;95.11;101687.75;5060833;28;21793;-77
2022/07/07 05:54:18;;;;;;;4.95;2.53;;;;;;;17.06;95.63;101684.31;5028533;28;20521;-76
2022/07/07 05:56:43;;;;;;;6.07;2.75;;;;;;;16.96;95.74;101694.25;5047550;28;20036;-76
2022/07/07 05:59:09;;;;;;;7.25;2.70;;;;;;;17.00;95.24;101698.13;5061227;28;20048;-73
2022/07/07 06:01:34;;;;;;;4.28;2.50;;;;;;;16.94;95.15;101701.47;5066156;28;20028;-76
2022/07/07 06:04:00;;;;;;;4.00;2.75;;;;;;;16.95;96.10;101710.13;5058856;28;20579;-75
2022/07/07 06:06:25;;;;;;;4.63;2.47;;;;;;;16.87;96.66;101719.69;5041307;28;20117;-73
2022/07/07 06:08:51;;;;;;;8.43;3.40;;;;;;;16.78;96.85;101706.78;5039943;28;20045;-74
2022/07/07 06:11:16;;;;;;;5.55;3.13;;;;;;;16.72;97.44;101706.50;5044927;28;20040;-74
2022/07/07 06:13:41;;;;;;;3.80;3.00;;;;;;;16.77;97.94;101716.47;5056263;28;20040;-74
2022/07/07 06:16:07;;;;;;;7.75;3.42;;;;;;;16.82;97.58;101710.69;5059502;28;20121;-73
2022/07/07 06:18:32;;;;;;;5.90;3.80;;;;;;;16.78;98.45;101707.59;5022093;28;20036;-72
2022/07/07 06:20:58;;;;;;;4.45;2.60;;;;;;;16.89;96.82;101719.50;5063154;28;20085;-73
2022/07/07 06:23:23;;;;;;;4.55;3.17;;;;;;;16.85;97.42;101726.91;5061573;28;20036;-76
2022/07/07 06:25:49;;;;;;;6.40;3.80;;;;;;;16.80;97.68;101731.00;5059816;28;20033;-75
2022/07/07 06:28:14;;;;;;;9.52;2.60;;;;;;;16.76;98.10;101737.59;5059455;28;20051;-73
2022/07/07 06:30:40;;;;;;;4.40;2.47;;;;;;;16.80;98.23;101738.84;5042549;28;20045;-72
2022/07/07 06:33:05;;;;;;;6.22;2.78;;;;;;;16.80;98.01;101739.69;5060163;28;20032;-76
2022/07/07 06:35:30;;;;;;;5.10;2.20;;;;;;;17.01;97.52;101740.84;5044927;28;20546;-73
2022/07/07 06:37:57;;;;;;;2.63;2.13;;;;;;;17.17;96.87;101740.75;5044403;28;20040;-76
2022/07/07 06:40:22;;;;;;;4.90;2.13;;;;;;;17.24;95.66;101738.25;5044930;28;20508;-77
2022/07/07 06:42:48;;;;;;;2.40;1.90;;;;;;;17.34;94.58;101740.59;5047367;28;20120;-77
2022/07/07 06:45:21;;;;;;;7.30;2.30;;;;;;;17.48;94.54;101745.06;5046466;28;20087;-76
2022/07/07 06:47:46;;;;;;;6.72;1.80;;;;;;;17.53;95.36;101745.31;5042213;28;20028;-77
2022/07/07 06:50:12;;;;;;;4.90;2.08;;;;;;;17.49;94.58;101741.44;5031649;28;20066;-76
2022/07/07 06:52:37;;;;;;;10.07;4.97;;;;;;;17.51;94.67;101742.06;5065004;28;20296;-76
2022/07/07 06:55:04;;;;;;;4.93;2.00;;;;;;;17.48;94.45;101756.38;5056085;28;20120;-76
2022/07/07 06:57:30;;;;;;;3.10;2.17;;;;;;;17.66;92.25;101758.63;5048276;28;20088;-75
2022/07/07 06:59:55;;;;;;;3.38;1.77;;;;;;;17.60;92.46;101758.56;5061462;28;20118;-74
2022/07/07 07:02:21;;;;;;;6.30;1.55;;;;;;;17.67;92.39;101752.41;5045418;28;20033;-74
2022/07/07 07:04:48;;;;;;;2.38;1.70;;;;;;;17.75;91.17;101758.56;5046303;28;20024;-75
2022/07/07 07:07:13;;;;;;;3.92;1.80;;;;;;;17.68;90.01;101759.25;5047362;28;20039;-74
2022/07/07 07:09:38;;;;;;;4.60;1.80;;;;;;;17.55;88.99;101755.66;5043261;28;20041;-73
2022/07/07 07:12:04;;;;;;;3.30;1.67;;;;;;;17.47;89.04;101764.41;5063588;28;20048;-74
2022/07/07 07:14:30;;;;;;;4.38;1.83;;;;;;;17.39;90.23;101777.59;5041037;28;20385;-75
2022/07/07 07:16:55;;;;;;;3.08;1.70;;;;;;;17.34;90.43;101785.97;5062730;28;20040;-74
2022/07/07 07:19:21;;;;;;;5.15;1.58;;;;;;;17.13;91.33;101792.69;5063893;28;20037;-73
2022/07/07 07:21:46;;;;;;;5.53;1.95;;;;;;;17.02;91.73;101794.91;5047959;28;20036;-77
2022/07/07 07:24:12;;;;;;;6.10;2.47;;;;;;;16.98;92.39;101786.56;5028758;28;20044;-74
2022/07/07 07:26:38;;;;;;;3.55;1.95;;;;;;;16.90;93.20;101778.78;5064414;28;20033;-73
2022/07/07 07:29:04;;;;;;;10.07;1.40;;;;;;;16.74;92.10;101792.75;5042602;28;20064;-73
2022/07/07 07:31:29;;;;;;;3.35;1.08;;;;;;;17.02;92.28;101785.22;5046353;28;20029;-73
2022/07/07 07:33:55;;;;;;;2.92;1.08;;;;;;;17.19;90.87;101788.53;5043751;28;20082;-72
2022/07/07 07:36:20;;;;;;;3.83;1.10;;;;;;;17.70;89.32;101794.00;5024538;28;20040;-76
2022/07/07 07:38:48;;;;;;;4.18;0.82;;;;;;;17.94;90.26;101800.03;5064619;28;20052;-76
2022/07/07 07:41:13;;;;;;;3.05;1.17;;;;;;;18.11;89.54;101795.41;5048920;28;20047;-72
2022/07/07 07:43:39;;;;;;;4.10;1.85;;;;;;;18.14;87.11;101807.34;5066655;28;20036;-75
2022/07/07 07:46:05;;;;;;;4.00;1.20;;;;;;;18.70;85.64;101812.06;5066945;28;20040;-76
2022/07/07 07:48:30;;;;;;;4.97;1.30;;;;;;;18.76;84.18;101809.53;5064346;28;20087;-74
2022/07/07 07:50:57;;;;;;;7.03;1.40;;;;;;;18.47;83.51;101819.09;5066577;28;20048;-74
2022/07/07 07:53:22;;;;;;;4.22;1.52;;;;;;;18.16;82.53;101821.94;5043919;28;20463;-72
2022/07/07 07:55:48;;;;;;;4.97;1.27;;;;;;;18.45;83.93;101812.41;5046862;28;20028;-73
2022/07/07 07:58:13;;;;;;;5.13;1.10;;;;;;;19.22;81.42;101811.81;5047102;28;20688;-74
2022/07/07 08:00:39;;;;;;;8.93;1.40;;;;;;;19.31;78.37;101803.78;5047143;28;20028;-74
2022/07/07 08:03:04;;;;;;;6.85;2.00;;;;;;;19.44;77.45;101812.63;5035218;28;20401;-74
2022/07/07 08:05:30;;;;;;;12.45;2.83;;;;;;;18.99;78.60;101812.00;5048211;28;20024;-77
2022/07/07 08:07:56;;;;;;;7.05;1.40;;;;;;;18.70;80.34;101818.13;5066140;28;20450;-73
2022/07/07 08:10:22;;;;;;;7.68;1.40;;;;;;;18.41;81.92;101821.66;5057266;28;20119;-74
2022/07/07 08:12:49;;;;;;;5.68;1.27;;;;;;;18.42;83.08;101826.72;5031479;28;20419;-75
2022/07/07 08:15:15;;;;;;;3.55;0.75;;;;;;;18.16;81.74;101831.59;5045549;28;20582;-73
2022/07/07 08:17:41;;;;;;;2.63;0.80;;;;;;;18.04;80.30;101834.66;5063216;28;20039;-73
2022/07/07 08:20:08;;;;;;;4.55;0.95;;;;;;;17.89;79.25;101844.34;5028809;28;20032;-75
2022/07/07 08:22:34;;;;;;;4.43;0.88;;;;;;;18.13;79.92;101837.22;5064784;28;20040;-74
2022/07/07 08:24:59;;;;;;;6.35;1.20;;;;;;;18.20;79.30;101843.38;5062978;28;20033;-75
2022/07/07 08:27:25;;;;;;;6.13;1.05;;;;;;;18.24;78.49;101842.81;5032289;28;20734;-73
2022/07/07 08:29:50;;;;;;;6.97;0.95;;;;;;;18.16;80.29;101845.56;5064359;28;20048;-74
2022/07/07 08:32:16;;;;;;;6.05;1.15;;;;;;;18.79;77.65;101855.63;5044901;28;20047;-74
2022/07/07 08:34:43;;;;;;;4.80;1.27;;;;;;;19.19;78.52;101854.28;5069756;28;20021;-74
2022/07/07 08:37:09;;;;;;;5.50;1.10;;;;;;;19.34;78.27;101859.44;5028453;28;20036;-76
2022/07/07 08:39:35;;;;;;;4.43;1.25;;;;;;;19.51;76.31;101854.72;5061199;28;20028;-72
2022/07/07 08:42:00;;;;;;;3.30;0.85;;;;;;;19.56;74.42;101854.19;5026345;28;20772;-73
2022/07/07 08:44:26;;;;;;;4.72;0.77;;;;;;;19.28;72.53;101865.47;5043427;28;20036;-74
2022/07/07 08:46:52;;;;;;;3.28;0.98;;;;;;;19.10;72.22;101862.44;5063862;28;20040;-74
2022/07/07 08:49:18;;;;;;;2.95;0.80;;;;;;;18.92;72.71;101863.69;5046193;28;20115;-75
2022/07/07 08:51:45;;;;;;;3.33;0.60;;;;;;;18.98;74.08;101876.06;5044708;28;20032;-72
2022/07/07 08:54:16;;;;;;;3.08;0.70;;;;;;;18.82;72.89;101886.81;5043501;28;20029;-74
2022/07/07 08:56:43;;;;;;;5.57;0.70;;;;;;;18.55;72.73;101883.81;5064910;28;20077;-73
2022/07/07 08:59:10;;;;;;;10.18;0.98;;;;;;;18.38;73.87;101883.19;5046672;28;20043;-74
2022/07/07 09:01:37;;;;;;;6.07;0.90;;;;;;;18.34;73.89;101883.75;5065969;28;20138;-77
2022/07/07 09:04:03;;;;;;;3.58;0.90;;;;;;;18.28;75.46;101880.03;5063907;28;20037;-75
2022/07/07 09:06:29;;;;;;;8.35;1.42;;;;;;;18.46;74.23;101888.38;5045497;28;20036;-76
2022/07/07 09:08:55;;;;;;;4.40;0.85;;;;;;;18.60;74.92;101891.16;5044706;28;20063;-75
2022/07/07 09:11:29;;;;;;;2.88;0.85;;;;;;;18.52;73.73;101893.91;5061361;28;20045;-73
2022/07/07 09:14:14;;;;;;;5.47;0.90;;;;;;;18.77;72.56;101897.03;5042502;28;20047;-76
2022/07/07 09:16:40;;;;;;;3.15;0.77;;;;;;;19.13;71.43;101907.56;5042689;28;20082;-75
2022/07/07 09:19:19;;;;;;;7.10;0.75;;;;;;;19.18;69.51;101904.41;5044454;28;20115;-70
2022/07/07 09:21:46;;;;;;;12.40;0.93;;;;;;;19.08;69.17;101904.72;5058605;28;20097;-73
2022/07/07 09:24:11;;;;;;;4.80;0.60;;;;;;;19.16;69.98;101898.53;5041436;28;20074;-74
2022/07/07 09:26:44;;;;;;;7.85;1.00;;;;;;;19.13;69.09;101907.56;5030870;28;20036;-73
2022/07/07 09:29:14;;;;;;;3.78;1.25;;;;;;;19.32;70.37;101903.53;5062491;28;20035;-75
2022/07/07 09:32:04;;;;;;;5.90;0.93;;;;;;;19.81;69.59;101909.84;5064568;28;20392;-73
2022/07/07 09:34:39;;;;;;;2.28;0.60;;;;;;;20.17;68.10;101912.34;5029932;28;20451;-74
2022/07/07 09:39:54;;;;;;;3.08;0.95;;;;;;;20.52;66.81;101912.34;5063687;28;20063;-74
2022/07/07 09:42:32;;;;;;;6.07;1.58;;;;;;;20.61;65.09;101915.66;5045590;28;20036;-74
2022/07/07 09:45:09;;;;;;;4.28;0.85;;;;;;;20.30;66.41;101924.78;5060690;28;20041;-75
2022/07/07 09:47:34;;;;;;;3.00;0.70;;;;;;;20.38;68.33;101936.97;5044206;28;20145;-72
2022/07/07 09:50:18;;;;;;;4.45;0.98;;;;;;;19.89;67.26;101928.16;5043419;28;20607;-75
2022/07/07 09:52:45;;;;;;;5.28;0.90;;;;;;;19.70;66.67;101940.09;5043863;28;20082;-74
2022/07/07 09:55:12;;;;;;;4.30;0.63;;;;;;;19.63;67.06;101934.78;5043276;28;21742;-72
2022/07/07 09:57:39;;;;;;;4.30;1.13;;;;;;;19.79;67.51;101932.91;5055729;28;20817;-75
2022/07/07 10:00:06;;;;;;;5.07;1.25;;;;;;;19.98;66.11;101936.72;5059610;28;20101;-75
2022/07/07 10:02:37;;;;;;;1.85;0.57;;;;;;;20.26;65.90;101939.34;5040776;28;20490;-76
2022/07/07 10:05:04;;;;;;;3.42;0.80;;;;;;;20.57;64.09;101935.47;5062404;28;20508;-73
2022/07/07 10:07:32;;;;;;;7.63;1.67;;;;;;;20.55;63.29;101940.09;5025547;28;20665;-72
2022/07/07 10:10:20;;;;;;;3.17;0.80;;;;;;;20.56;62.54;101936.47;5039960;28;20048;-73
2022/07/07 10:12:49;;;;;;;3.70;0.52;;;;;;;20.56;64.92;101939.91;5042491;28;20439;-75
2022/07/07 10:15:15;;;;;;;3.08;0.88;;;;;;;20.36;62.99;101947.72;5047628;28;20043;-74
2022/07/07 10:17:42;;;;;;;2.60;0.63;;;;;;;20.08;63.54;101952.16;5063671;28;20485;-75
2022/07/07 10:20:08;;;;;;;4.57;0.70;;;;;;;19.89;62.53;101954.47;5028240;28;20028;-72
2022/07/07 10:22:36;;;;;;;3.08;0.75;;;;;;;19.73;64.02;101960.00;5053302;28;20036;-76
2022/07/07 10:25:07;;;;;;;5.65;1.50;;;;;;;19.55;65.10;101965.66;5059652;28;20046;-75
2022/07/07 10:27:33;;;;;;;4.22;0.70;;;;;;;19.31;67.45;101977.31;5064193;28;20071;-76
2022/07/07 10:30:00;;;;;;;5.30;1.33;;;;;;;19.06;69.31;101985.53;5046082;28;20124;-76
2022/07/07 10:32:30;;;;;;;4.47;1.15;;;;;;;19.09;72.45;101995.69;5046711;28;20032;-75
2022/07/07 10:34:58;;;;;;;6.30;0.90;;;;;;;19.08;74.05;101995.88;5044453;28;20048;-75
2022/07/07 10:37:26;;;;;;;6.22;1.17;;;;;;;19.07;74.51;102000.31;5061609;28;20408;-75
2022/07/07 10:39:56;;;;;;;5.07;1.38;;;;;;;18.95;75.41;102001.75;5043017;28;20135;-76
2022/07/07 10:42:37;;;;;;;4.93;1.10;;;;;;;18.77;76.17;102000.31;5027496;28;20104;-76
2022/07/07 10:45:04;;;;;;;6.00;1.10;;;;;;;18.76;74.71;101996.06;5042281;28;20071;-75
2022/07/07 10:47:32;;;;;;;5.20;1.65;;;;;;;18.94;76.49;102002.78;5035240;28;20028;-76
2022/07/07 10:49:59;;;;;;;3.03;1.00;;;;;;;19.38;75.50;102001.88;5063467;28;20044;-75
2022/07/07 10:52:44;;;;;;;10.00;1.40;;;;;;;19.50;73.87;101997.78;5062512;28;20124;-75
2022/07/07 10:55:09;;;;;;;4.72;1.40;;;;;;;19.73;73.55;102002.09;5036042;28;20078;-74
2022/07/07 10:57:43;;;;;;;8.70;1.00;;;;;;;20.05;71.79;102010.47;5044902;28;20032;-76
2022/07/07 11:00:25;;;;;;;2.22;0.73;;;;;;;20.02;68.60;102015.13;5029428;28;20021;-74
2022/07/07 11:02:59;;;;;;;1.98;0.60;;;;;;;19.84;67.49;102002.41;5064187;28;20479;-75
2022/07/07 11:05:29;;;;;;;2.65;0.50;;;;;;;19.54;68.29;102008.75;5040082;28;20390;-74
2022/07/07 11:08:06;;;;;;;4.38;1.17;;;;;;;19.58;66.70;102012.63;5061443;28;20078;-76
2022/07/07 11:10:54;;;;;;;4.75;0.85;;;;;;;19.72;67.66;102008.31;5056715;28;21749;-73
2022/07/07 11:13:37;;;;;;;6.20;1.00;;;;;;;19.93;66.76;102018.03;5045323;28;20039;-76
2022/07/07 11:16:06;;;;;;;;;;;;;;;19.77;66.63;102013.88;5063467;28;20043;-76
2022/07/07 11:18:34;;;;;;;2.17;0.60;;;;;;;19.78;66.22;102024.22;5057335;28;19920;-77
2022/07/07 11:21:02;;;;;;;2.50;0.70;;;;;;;19.55;66.73;102026.16;5063319;28;20113;-74
2022/07/07 11:23:43;;;;;;;5.30;0.82;;;;;;;19.28;66.90;102038.19;5062526;28;20025;-75
2022/07/07 11:26:08;;;;;;;3.75;1.35;;;;;;;19.34;67.63;102026.94;5064924;28;20036;-74
2022/07/07 11:28:35;;;;;;;3.72;0.85;;;;;;;19.23;67.62;102041.34;5064440;28;20070;-73